地図

経路データ

SID SEASON NUMBER BASIN SUBBASIN NAME ISO_TIME NATURE LAT LON WMO_WIND WMO_PRES WMO_AGENCY TRACK_TYPE DIST2LAND LANDFALL IFLAG USA_AGENCY USA_ATCF_ID USA_LAT USA_LON USA_RECORD USA_STATUS USA_WIND USA_PRES USA_SSHS USA_R34_NE USA_R34_SE USA_R34_SW USA_R34_NW USA_R50_NE USA_R50_SE USA_R50_SW USA_R50_NW USA_R64_NE USA_R64_SE USA_R64_SW USA_R64_NW USA_POCI USA_ROCI USA_RMW USA_EYE TOKYO_LAT TOKYO_LON TOKYO_GRADE TOKYO_WIND TOKYO_PRES TOKYO_R50_DIR TOKYO_R50_LONG TOKYO_R50_SHORT TOKYO_R30_DIR TOKYO_R30_LONG TOKYO_R30_SHORT TOKYO_LAND CMA_LAT CMA_LON CMA_CAT CMA_WIND CMA_PRES HKO_LAT HKO_LON HKO_CAT HKO_WIND HKO_PRES NEWDELHI_LAT NEWDELHI_LON NEWDELHI_GRADE NEWDELHI_WIND NEWDELHI_PRES NEWDELHI_CI NEWDELHI_DP NEWDELHI_POCI REUNION_LAT REUNION_LON REUNION_TYPE REUNION_WIND REUNION_PRES REUNION_TNUM REUNION_CI REUNION_RMW REUNION_R34_NE REUNION_R34_SE REUNION_R34_SW REUNION_R34_NW REUNION_R50_NE REUNION_R50_SE REUNION_R50_SW REUNION_R50_NW REUNION_R64_NE REUNION_R64_SE REUNION_R64_SW REUNION_R64_NW BOM_LAT BOM_LON BOM_TYPE BOM_WIND BOM_PRES BOM_TNUM BOM_CI BOM_RMW BOM_R34_NE BOM_R34_SE BOM_R34_SW BOM_R34_NW BOM_R50_NE BOM_R50_SE BOM_R50_SW BOM_R50_NW BOM_R64_NE BOM_R64_SE BOM_R64_SW BOM_R64_NW BOM_ROCI BOM_POCI BOM_EYE BOM_POS_METHOD BOM_PRES_METHOD NADI_LAT NADI_LON NADI_CAT NADI_WIND NADI_PRES WELLINGTON_LAT WELLINGTON_LON WELLINGTON_WIND WELLINGTON_PRES DS824_LAT DS824_LON DS824_STAGE DS824_WIND DS824_PRES TD9636_LAT TD9636_LON TD9636_STAGE TD9636_WIND TD9636_PRES TD9635_LAT TD9635_LON TD9635_WIND TD9635_PRES TD9635_ROCI NEUMANN_LAT NEUMANN_LON NEUMANN_CLASS NEUMANN_WIND NEUMANN_PRES MLC_LAT MLC_LON MLC_CLASS MLC_WIND MLC_PRES USA_GUST BOM_GUST BOM_GUST_PER REUNION_GUST REUNION_GUST_PER USA_SEAHGT USA_SEARAD_NE USA_SEARAD_SE USA_SEARAD_SW USA_SEARAD_NW STORM_SPEED STORM_DIR
1989104N10149 1989 34 WP MM ANDY 1989-04-14 00:00:00 TS 9.90000 148.500 spur-merge 1350 1350 __O___________ -1 9.90000 148.500 1 23 1004 1 274
1989104N10149 1989 34 WP MM ANDY 1989-04-14 03:00:00 TS 9.90249 148.460 spur-merge 1350 1350 __P___________ -1 9.90249 148.460 1 23 1004 0 0
1989104N10149 1989 34 WP MM ANDY 1989-04-14 06:00:00 TS 9.90000 148.500 spur-merge 1350 1350 __O___________ -1 9.90000 148.500 1 23 1004 2 93
1989104N10149 1989 34 WP MM ANDY 1989-04-14 09:00:00 TS 9.89252 148.670 spur-merge 1352 1352 __P___________ -1 9.89252 148.670 1 23 1004 4 90
1989104N10149 1989 34 WP MM ANDY 1989-04-14 12:00:00 TS 9.90000 148.900 spur-merge 1354 1354 __O___________ -1 9.90000 148.900 1 23 1004 5 83
1989104N10149 1989 34 WP MM ANDY 1989-04-14 15:00:00 TS 9.95002 149.130 spur-merge 1368 1368 __P___________ -1 9.95002 149.130 1 23 1004 4 76
1989104N10149 1989 34 WP MM ANDY 1989-04-14 18:00:00 TS 10.0000 149.300 spur-merge 1372 1372 __O___________ -1 10.0000 149.300 1 23 1004 2 74
1989104N10149 1989 34 WP MM ANDY 1989-04-14 21:00:00 TS 10.0075 149.330 spur-merge 1372 1372 __P___________ -1 10.0075 149.330 1 26 1003 0 0
1989104N10149 1989 34 WP MM ANDY 1989-04-15 00:00:00 TS 10.0000 149.300 spur-merge 1372 1372 __O___________ -1 10.0000 149.300 1 29 1002 0 302
1989104N10149 1989 34 WP MM ANDY 1989-04-15 03:00:00 TS 10.0375 149.300 spur-merge 1372 1372 __P___________ -1 10.0375 149.300 1 29 1002 0 0
1989104N10149 1989 34 WP MM ANDY 1989-04-15 06:00:00 TS 10.0000 149.300 spur-merge 1372 1349 __O___________ -1 10.0000 149.300 1 29 1002 3 178
1989104N10149 1989 34 WP MM ANDY 1989-04-15 09:00:00 TS 9.78750 149.308 spur-merge 1349 1316 __P___________ -1 9.78750 149.308 1 29 1002 5 178
1989104N10149 1989 34 WP MM ANDY 1989-04-15 12:00:00 TS 9.50000 149.300 spur-merge 1316 1294 __O___________ -1 9.50000 149.300 1 29 1002 5 185
1989104N10149 1989 34 WP MM ANDY 1989-04-15 15:00:00 TS 9.25000 149.265 spur-merge 1294 1259 __P___________ -1 9.25000 149.265 1 29 1002 5 191
1989104N10149 1989 34 WP MM ANDY 1989-04-15 18:00:00 TS 9.00000 149.200 spur-merge 1259 1224 __O___________ -1 9.00000 149.200 1 29 1002 6 198
1989104N10149 1989 34 WP MM ANDY 1989-04-15 21:00:00 TS 8.71251 149.092 spur-merge 1224 1200 __P___________ -1 8.71251 149.092 1 29 1002 5 202
1989104N10149 1989 34 WP MM ANDY 1989-04-16 00:00:00 TS 8.50000 149.000 spur-merge 1200 1200 __O___________ -1 8.50000 149.000 1 29 1002 2 201
1989104N10149 1989 34 WP MM ANDY 1989-04-16 03:00:00 TS 8.48499 149.000 spur-merge 1200 1200 __P___________ -1 8.48499 149.000 1 29 1002 0 0
1989104N10149 1989 34 WP MM ANDY 1989-04-16 06:00:00 TS 8.50000 149.000 spur-merge 1200 1188 __O___________ -1 8.50000 149.000 1 29 1002 2 216
1989104N10149 1989 34 WP MM ANDY 1989-04-16 09:00:00 TS 8.35001 148.900 spur-merge 1188 1164 __P___________ -1 8.39252 148.925 1 29 1002 4 213
1989104N10149 1989 34 WP MM ANDY 1989-04-16 12:00:00 TS 8.20000 148.800 spur-merge 1164 1164 __O___________ -1 8.20000 148.800 1 29 1002 2 212
1989104N10149 1989 34 WP MM ANDY 1989-04-16 15:00:00 TS 8.19249 148.800 spur-merge 1164 ______________ -1 1 0 0

デジタル台風データ・検索

IBTrACS Databaseについて

本データベースは、米国NOAAが公開する1842年以降の世界の熱帯低気圧のベストトラックデータアーカイブInternational Best Track Archive for Climate Stewardship (IBTrACS)を、ウェブで閲覧しやすい形式に変換したものです。

最終更新日:2021-11-26